Time;durP1;ratioP1;P1;durP2;ratioP2;P2;SDS_P1;SDS_P2;PMS_P1;PMS_P2;Temp;Humidity;BMP_temperature;BMP_pressure;BME280_temperature;BME280_humidity;BME280_pressure;Samples;Min_cycle;Max_cycle;Signal;HPM_P1;HPM_P2
2024/03/01 00:02:05;;;;;;;45.95;24.58;;;4.90;99.90;;;;;;5049274;28;20048;-52
2024/03/01 00:04:30;;;;;;;44.40;25.92;;;4.90;99.90;;;;;;5049353;28;20108;-52
2024/03/01 00:06:56;;;;;;;47.53;26.50;;;4.80;99.90;;;;;;5048925;28;20044;-49
2024/03/01 00:09:21;;;;;;;48.22;27.83;;;4.90;99.90;;;;;;5049342;28;20373;-49
2024/03/01 00:11:47;;;;;;;50.95;27.98;;;4.90;99.90;;;;;;5049149;28;20032;-47
2024/03/01 00:14:12;;;;;;;56.13;30.52;;;5.00;99.90;;;;;;5049176;28;20079;-53
2024/03/01 00:16:38;;;;;;;51.47;26.90;;;4.90;99.90;;;;;;5048809;28;20072;-48
2024/03/01 00:19:03;;;;;;;51.13;25.83;;;5.00;99.90;;;;;;5048831;28;20029;-51
2024/03/01 00:21:29;;;;;;;50.80;27.40;;;5.00;99.90;;;;;;5048862;28;20029;-51
2024/03/01 00:23:54;;;;;;;48.10;27.25;;;4.90;99.90;;;;;;5048929;28;20541;-50
2024/03/01 00:26:19;;;;;;;44.08;27.25;;;5.00;99.90;;;;;;5048673;28;20425;-48
2024/03/01 00:28:45;;;;;;;45.05;27.25;;;4.90;99.90;;;;;;5048344;28;20028;-53
2024/03/01 00:31:10;;;;;;;47.95;27.25;;;4.90;99.90;;;;;;5048801;28;20388;-49
2024/03/01 00:33:36;;;;;;;41.15;24.73;;;5.00;99.90;;;;;;5048837;28;20026;-47
2024/03/01 00:36:02;;;;;;;50.00;25.60;;;5.00;99.90;;;;;;5048701;28;20055;-51
2024/03/01 00:38:27;;;;;;;47.72;25.17;;;5.00;99.90;;;;;;5047970;28;20036;-51
2024/03/01 00:40:53;;;;;;;44.50;25.50;;;5.10;99.90;;;;;;5048741;28;20031;-48
2024/03/01 00:43:19;;;;;;;66.95;37.80;;;5.10;99.90;;;;;;5048386;28;20131;-53
2024/03/01 00:45:44;;;;;;;51.83;29.25;;;5.10;99.90;;;;;;5044647;28;20504;-50
2024/03/01 00:48:12;;;;;;;49.97;26.23;;;5.10;99.90;;;;;;5048416;28;20021;-54
2024/03/01 00:50:39;;;;;;;45.60;25.30;;;5.20;99.90;;;;;;5047501;28;20437;-49
2024/03/01 00:53:05;;;;;;;41.83;24.20;;;5.20;99.90;;;;;;5048463;28;20123;-50
2024/03/01 00:55:33;;;;;;;41.72;23.92;;;5.10;99.90;;;;;;5048347;28;20115;-46
2024/03/01 00:57:59;;;;;;;43.13;22.25;;;5.10;99.90;;;;;;5048135;28;20040;-52
2024/03/01 01:00:26;;;;;;;40.92;24.20;;;4.90;99.90;;;;;;5047351;28;20492;-49
2024/03/01 01:02:51;;;;;;;40.53;21.67;;;4.80;99.90;;;;;;5054684;22;20049;-43
2024/03/01 01:05:17;;;;;;;41.15;23.20;;;4.70;99.90;;;;;;5029918;28;20017;-44
2024/03/01 01:07:43;;;;;;;38.08;22.17;;;4.70;99.90;;;;;;5029981;28;20025;-43
2024/03/01 01:10:09;;;;;;;40.42;23.25;;;4.60;99.90;;;;;;5031522;28;20037;-47
2024/03/01 01:12:36;;;;;;;40.28;23.40;;;4.60;99.90;;;;;;5031390;28;20112;-45
2024/03/01 01:15:02;;;;;;;33.90;21.33;;;4.50;99.90;;;;;;5031475;28;20036;-44
2024/03/01 01:17:28;;;;;;;40.95;20.60;;;4.60;99.90;;;;;;5031140;28;20042;-45
2024/03/01 01:19:57;;;;;;;35.03;20.73;;;4.40;99.90;;;;;;5031421;28;20033;-47
2024/03/01 01:22:23;;;;;;;36.65;20.85;;;4.30;99.90;;;;;;5031251;28;20037;-44
2024/03/01 01:24:49;;;;;;;33.65;20.70;;;4.30;99.90;;;;;;5031399;28;20053;-49
2024/03/01 01:27:14;;;;;;;35.70;19.73;;;4.20;99.90;;;;;;5031207;28;20125;-43
2024/03/01 01:29:40;;;;;;;31.05;20.50;;;4.10;99.90;;;;;;5031352;28;20112;-43
2024/03/01 01:32:07;;;;;;;36.95;19.67;;;4.10;99.90;;;;;;5031352;28;20083;-46
2024/03/01 01:34:33;;;;;;;34.80;21.27;;;4.00;99.90;;;;;;5031124;28;20072;-45
2024/03/01 01:36:58;;;;;;;38.28;21.88;;;4.00;99.90;;;;;;5031096;28;20405;-49
2024/03/01 01:39:24;;;;;;;43.42;22.58;;;4.00;99.90;;;;;;5030192;28;20535;-45
2024/03/01 01:41:49;;;;;;;33.15;21.77;;;4.00;99.90;;;;;;5029944;28;20037;-44
2024/03/01 01:44:15;;;;;;;39.40;21.42;;;4.00;99.90;;;;;;5031171;28;20454;-48
2024/03/01 01:46:42;;;;;;;37.22;20.73;;;4.00;99.90;;;;;;5031307;28;20057;-45
2024/03/01 01:49:07;;;;;;;42.05;23.83;;;3.90;99.90;;;;;;5032374;28;20045;-47
2024/03/01 01:51:34;;;;;;;43.65;23.40;;;3.90;99.90;;;;;;5035024;28;20022;-43
2024/03/01 01:54:00;;;;;;;42.63;21.48;;;3.90;99.90;;;;;;5034059;28;20021;-47
2024/03/01 01:56:25;;;;;;;40.97;21.80;;;3.80;99.90;;;;;;5034721;28;20025;-44
2024/03/01 01:58:53;;;;;;;40.22;22.35;;;3.90;99.90;;;;;;5034740;28;20029;-44
2024/03/01 02:01:18;;;;;;;37.03;21.63;;;3.90;99.90;;;;;;5035361;28;20120;-44
2024/03/01 02:03:44;;;;;;;43.90;21.27;;;3.90;99.90;;;;;;5035614;28;20170;-48
2024/03/01 02:06:10;;;;;;;43.67;22.15;;;3.90;99.90;;;;;;5035897;28;20080;-44
2024/03/01 02:08:39;;;;;;;38.83;21.58;;;3.90;99.90;;;;;;5035449;28;20385;-44
2024/03/01 02:11:05;;;;;;;40.63;20.60;;;4.00;99.90;;;;;;5033895;28;20381;-48
2024/03/01 02:13:31;;;;;;;40.10;22.15;;;4.10;99.90;;;;;;5036289;28;20037;-46
2024/03/01 02:15:57;;;;;;;39.65;23.70;;;4.00;99.90;;;;;;5043042;28;20026;-48
2024/03/01 02:18:22;;;;;;;39.97;22.50;;;4.00;99.90;;;;;;5043365;28;20025;-44
2024/03/01 02:21:06;;;;;;;41.33;22.83;;;4.10;99.90;;;;;;5041528;28;20485;-46
2024/03/01 02:23:32;;;;;;;45.45;24.08;;;4.10;99.90;;;;;;5035647;28;20025;-50
2024/03/01 02:25:57;;;;;;;35.20;21.35;;;4.10;99.90;;;;;;5033151;28;20028;-48
2024/03/01 02:28:23;;;;;;;37.55;21.70;;;4.10;99.90;;;;;;5034427;28;20083;-44
2024/03/01 02:30:51;;;;;;;33.58;19.63;;;4.00;99.90;;;;;;5034567;28;20037;-45
2024/03/01 02:33:18;;;;;;;38.75;20.08;;;4.00;99.90;;;;;;5034728;28;20029;-44
2024/03/01 02:35:43;;;;;;;39.90;19.98;;;3.90;99.90;;;;;;5034342;28;20026;-47
2024/03/01 02:38:09;;;;;;;38.80;20.92;;;3.80;99.90;;;;;;5032838;28;20029;-45
2024/03/01 02:40:34;;;;;;;36.90;22.55;;;3.70;99.90;;;;;;5034463;28;20025;-47
2024/03/01 02:43:00;;;;;;;38.47;21.65;;;3.70;99.90;;;;;;5034122;28;20026;-48
2024/03/01 02:45:25;;;;;;;36.30;21.00;;;3.60;99.90;;;;;;5033863;28;20071;-45
2024/03/01 02:47:51;;;;;;;39.88;20.63;;;3.60;99.90;;;;;;5033834;28;20029;-48
2024/03/01 02:50:16;;;;;;;36.95;20.25;;;3.60;99.90;;;;;;5032917;28;20026;-45
2024/03/01 02:52:42;;;;;;;37.42;20.95;;;3.60;99.90;;;;;;5033855;28;20101;-48
2024/03/01 02:55:08;;;;;;;34.20;20.58;;;3.70;99.90;;;;;;5033958;28;20114;-47
2024/03/01 02:57:33;;;;;;;31.45;18.65;;;3.60;99.90;;;;;;5033545;28;20034;-44
2024/03/01 02:59:59;;;;;;;33.38;19.85;;;3.60;99.90;;;;;;5033561;28;20083;-45
2024/03/01 03:02:26;;;;;;;34.22;20.00;;;3.60;99.90;;;;;;5032223;28;20448;-48
2024/03/01 03:04:53;;;;;;;35.10;20.15;;;3.60;99.90;;;;;;5033525;28;20052;-48
2024/03/01 03:07:19;;;;;;;36.55;20.00;;;3.60;99.90;;;;;;5033478;28;20022;-48
2024/03/01 03:09:45;;;;;;;38.40;20.10;;;3.60;99.90;;;;;;5032310;28;20033;-46
2024/03/01 03:12:11;;;;;;;40.60;20.50;;;3.60;99.90;;;;;;5033332;28;20033;-46
2024/03/01 03:14:37;;;;;;;45.15;21.55;;;3.60;99.90;;;;;;5033267;28;20025;-47
2024/03/01 03:17:04;;;;;;;41.60;23.02;;;3.70;99.90;;;;;;5033220;28;20036;-44
2024/03/01 03:19:30;;;;;;;36.45;20.85;;;3.70;99.90;;;;;;5033566;28;20022;-47
2024/03/01 03:21:56;;;;;;;41.03;23.45;;;3.60;99.90;;;;;;5033550;28;20028;-45
2024/03/01 03:24:21;;;;;;;32.08;18.95;;;3.60;99.90;;;;;;5033316;28;20038;-45
2024/03/01 03:26:47;;;;;;;44.20;24.45;;;3.60;99.90;;;;;;5033278;28;20029;-48
2024/03/01 03:29:12;;;;;;;39.03;22.48;;;3.50;99.90;;;;;;5033069;28;20032;-45
2024/03/01 03:31:38;;;;;;;40.40;22.40;;;3.60;99.90;;;;;;5032982;28;20025;-43
2024/03/01 03:34:04;;;;;;;42.05;23.23;;;3.60;99.90;;;;;;5031968;28;20528;-49
2024/03/01 03:36:30;;;;;;;39.80;21.85;;;3.40;99.90;;;;;;5032933;28;20029;-43
2024/03/01 03:38:55;;;;;;;45.33;23.73;;;3.20;99.90;;;;;;5033020;28;20108;-45
2024/03/01 03:41:21;;;;;;;41.08;22.38;;;3.20;99.90;;;;;;5032764;28;20061;-45
2024/03/01 03:43:46;;;;;;;44.50;23.35;;;3.20;99.90;;;;;;5032658;28;20036;-48
2024/03/01 03:46:12;;;;;;;45.03;23.80;;;3.10;99.90;;;;;;5032774;28;20028;-48
2024/03/01 03:48:38;;;;;;;38.45;21.63;;;3.10;99.90;;;;;;5032661;28;20034;-48
2024/03/01 03:51:03;;;;;;;38.58;20.30;;;3.10;99.90;;;;;;5032794;28;20028;-46
2024/03/01 03:53:29;;;;;;;34.35;19.33;;;3.00;99.90;;;;;;5032643;28;20025;-45
2024/03/01 03:55:54;;;;;;;39.28;22.02;;;3.00;99.90;;;;;;5032563;28;20104;-46
2024/03/01 03:58:20;;;;;;;36.90;21.77;;;3.10;99.90;;;;;;5032305;28;20032;-43
2024/03/01 04:00:45;;;;;;;39.65;22.02;;;3.10;99.90;;;;;;5032790;28;20488;-47
2024/03/01 04:03:11;;;;;;;40.63;23.17;;;3.30;99.90;;;;;;5032334;28;20049;-50
2024/03/01 04:05:36;;;;;;;41.65;23.83;;;3.40;99.90;;;;;;5032405;28;20021;-46
2024/03/01 04:08:02;;;;;;;43.97;23.45;;;3.40;99.90;;;;;;5032272;28;20029;-44
2024/03/01 04:10:29;;;;;;;37.00;21.30;;;3.50;99.90;;;;;;5031722;28;20030;-44
2024/03/01 04:12:55;;;;;;;35.80;20.20;;;3.50;99.90;;;;;;5031559;28;20037;-48
2024/03/01 04:15:20;;;;;;;39.20;21.67;;;3.50;99.90;;;;;;5032465;28;20030;-44
2024/03/01 04:17:46;;;;;;;39.15;20.85;;;3.50;99.90;;;;;;5032127;28;20092;-44
2024/03/01 04:20:12;;;;;;;37.75;21.02;;;3.40;99.90;;;;;;5032551;28;20100;-45
2024/03/01 04:22:37;;;;;;;40.17;20.50;;;3.50;99.90;;;;;;5032109;28;20493;-45
2024/03/01 04:25:05;;;;;;;36.42;19.52;;;3.40;99.90;;;;;;5032036;28;20026;-45
2024/03/01 04:27:30;;;;;;;39.50;21.23;;;3.40;99.90;;;;;;5031977;28;20029;-45
2024/03/01 04:29:56;;;;;;;37.33;20.85;;;3.40;99.90;;;;;;5032123;28;20080;-45
2024/03/01 04:32:21;;;;;;;36.30;20.60;;;3.40;99.90;;;;;;5031892;28;20025;-44
2024/03/01 04:34:47;;;;;;;39.55;21.02;;;3.40;99.90;;;;;;5031869;28;20504;-43
2024/03/01 04:37:14;;;;;;;33.00;20.17;;;3.40;99.90;;;;;;5031748;28;20493;-45
2024/03/01 04:39:40;;;;;;;36.58;21.90;;;3.40;99.90;;;;;;5031872;28;20022;-49
2024/03/01 04:42:05;;;;;;;39.60;21.08;;;3.40;99.90;;;;;;5031678;28;20384;-43
2024/03/01 04:44:31;;;;;;;30.25;19.15;;;3.50;99.90;;;;;;5030841;28;20036;-44
2024/03/01 04:46:56;;;;;;;37.80;18.90;;;3.50;99.90;;;;;;5031713;28;20029;-46
2024/03/01 04:49:22;;;;;;;37.78;19.15;;;3.50;99.90;;;;;;5031925;28;20040;-44
2024/03/01 04:51:47;;;;;;;36.72;20.63;;;3.60;99.90;;;;;;5030829;28;20026;-44
2024/03/01 04:54:13;;;;;;;37.40;19.65;;;3.70;99.90;;;;;;5031742;28;20132;-43
2024/03/01 04:56:38;;;;;;;38.60;21.92;;;3.70;99.90;;;;;;5031645;28;20095;-43
2024/03/01 04:59:04;;;;;;;37.83;19.13;;;3.80;99.90;;;;;;5031963;28;20032;-43
2024/03/01 05:01:29;;;;;;;34.08;19.73;;;3.80;99.90;;;;;;5032393;28;20485;-43
2024/03/01 05:03:55;;;;;;;31.75;20.42;;;3.90;99.90;;;;;;5031914;28;20057;-49
2024/03/01 05:06:20;;;;;;;37.80;20.13;;;3.90;99.90;;;;;;5032131;28;20423;-44
2024/03/01 05:08:46;;;;;;;31.00;18.42;;;4.00;99.90;;;;;;5031834;28;20044;-44
2024/03/01 05:11:12;;;;;;;30.70;18.23;;;4.10;99.90;;;;;;5031599;28;20087;-46
2024/03/01 05:13:37;;;;;;;28.63;19.20;;;4.20;99.90;;;;;;5031384;28;20025;-48
2024/03/01 05:16:03;;;;;;;33.00;20.38;;;4.20;99.90;;;;;;5031392;28;20025;-46
2024/03/01 05:18:29;;;;;;;36.25;19.88;;;4.20;99.90;;;;;;5031104;28;20029;-49
2024/03/01 05:20:55;;;;;;;35.40;20.17;;;4.30;99.90;;;;;;5031369;28;20393;-46
2024/03/01 05:23:23;;;;;;;34.88;20.88;;;4.30;99.90;;;;;;5029948;28;20025;-47
2024/03/01 05:25:49;;;;;;;37.60;19.92;;;4.40;99.90;;;;;;5034441;28;20397;-50
2024/03/01 05:28:15;;;;;;;34.78;20.38;;;4.40;99.90;;;;;;5035687;28;20022;-44
2024/03/01 05:30:40;;;;;;;31.45;19.10;;;4.40;99.90;;;;;;5035342;28;20090;-45
2024/03/01 05:33:09;;;;;;;35.22;21.08;;;4.40;99.90;;;;;;5035396;28;20026;-48
2024/03/01 05:35:36;;;;;;;34.72;19.33;;;4.50;99.90;;;;;;5035679;28;20037;-48
2024/03/01 05:38:01;;;;;;;33.10;19.65;;;4.30;99.90;;;;;;5035015;28;20033;-45
2024/03/01 05:40:27;;;;;;;35.97;20.92;;;4.40;99.90;;;;;;5035181;28;20036;-47
2024/03/01 05:42:52;;;;;;;38.25;19.17;;;4.40;99.90;;;;;;5034979;28;20025;-48
2024/03/01 05:45:19;;;;;;;32.80;20.70;;;4.40;99.90;;;;;;5035297;28;20041;-44
2024/03/01 05:47:45;;;;;;;38.08;19.77;;;4.40;99.90;;;;;;5036530;28;20028;-47
2024/03/01 05:50:12;;;;;;;36.67;20.48;;;4.40;99.90;;;;;;5035829;28;20404;-46
2024/03/01 05:52:43;;;;;;;40.92;22.73;;;4.40;99.90;;;;;;5035908;28;20028;-43
2024/03/01 05:55:14;;;;;;;36.75;21.88;;;4.40;99.90;;;;;;5035517;28;20047;-45
2024/03/01 05:57:41;;;;;;;36.95;20.50;;;4.50;99.90;;;;;;5035047;28;20417;-45
2024/03/01 06:00:25;;;;;;;37.30;20.63;;;4.50;99.90;;;;;;5033844;28;20531;-44
2024/03/01 06:02:51;;;;;;;37.22;19.88;;;4.50;99.90;;;;;;5034634;28;20037;-43
2024/03/01 06:05:17;;;;;;;39.28;20.38;;;4.50;99.90;;;;;;5034896;28;20039;-45
2024/03/01 06:07:43;;;;;;;33.78;19.13;;;4.50;99.90;;;;;;5034582;28;20033;-44
2024/03/01 06:10:10;;;;;;;36.75;21.67;;;4.50;99.90;;;;;;5034766;28;20063;-45
2024/03/01 06:12:36;;;;;;;41.33;21.75;;;4.50;99.90;;;;;;5034542;28;20025;-44
2024/03/01 06:15:02;;;;;;;38.50;21.15;;;4.60;99.90;;;;;;5033404;28;20397;-48
2024/03/01 06:17:28;;;;;;;31.25;20.02;;;4.60;99.90;;;;;;5034264;28;20132;-45
2024/03/01 06:19:53;;;;;;;39.08;21.02;;;4.70;99.90;;;;;;5035700;28;20021;-44
2024/03/01 06:22:19;;;;;;;30.42;18.25;;;4.70;99.90;;;;;;5034539;28;20022;-46
2024/03/01 06:24:45;;;;;;;30.38;18.13;;;4.70;99.90;;;;;;5033117;28;20036;-44
2024/03/01 06:27:11;;;;;;;39.50;22.17;;;4.80;99.90;;;;;;5034230;28;20040;-44
2024/03/01 06:29:36;;;;;;;35.28;21.25;;;4.80;99.90;;;;;;5034289;28;20079;-49
2024/03/01 06:32:02;;;;;;;31.58;19.80;;;4.80;99.90;;;;;;5033217;28;20026;-44
2024/03/01 06:34:28;;;;;;;38.13;21.85;;;4.90;99.90;;;;;;5033503;28;20029;-44
2024/03/01 06:36:53;;;;;;;36.38;21.95;;;5.00;99.90;;;;;;5033945;28;20029;-44
2024/03/01 06:39:19;;;;;;;38.20;22.45;;;5.00;99.90;;;;;;5034244;28;20109;-43
2024/03/01 06:41:44;;;;;;;36.28;23.02;;;5.10;99.90;;;;;;5034106;28;20057;-44
2024/03/01 06:44:10;;;;;;;44.85;25.33;;;5.20;99.90;;;;;;5033004;28;20218;-44
2024/03/01 06:46:36;;;;;;;49.42;22.92;;;5.30;99.90;;;;;;5033930;28;20119;-44
2024/03/01 06:49:01;;;;;;;39.05;21.67;;;5.30;99.90;;;;;;5033995;28;20025;-46
2024/03/01 06:51:30;;;;;;;35.50;20.60;;;5.30;99.90;;;;;;5033183;28;20481;-44
2024/03/01 06:53:56;;;;;;;30.77;20.52;;;5.40;99.90;;;;;;5033971;28;20021;-46
2024/03/01 06:56:22;;;;;;;45.58;25.10;;;5.40;99.90;;;;;;5033893;28;20392;-44
2024/03/01 06:58:49;;;;;;;41.67;24.50;;;5.40;99.90;;;;;;5032617;28;20452;-46
2024/03/01 07:03:52;;;;;;;39.58;23.40;;;5.40;99.90;;;;;;5048551;28;20052;-47
2024/03/01 07:06:18;;;;;;;44.38;24.63;;;5.40;99.90;;;;;;5032566;28;20345;-53
2024/03/01 07:08:44;;;;;;;41.45;24.17;;;5.40;99.90;;;;;;5033782;28;20029;-49
2024/03/01 07:11:09;;;;;;;46.72;25.33;;;5.30;99.90;;;;;;5048808;28;20025;-49
2024/03/01 07:13:35;;;;;;;44.40;24.50;;;5.30;99.90;;;;;;5033750;28;20385;-47
2024/03/01 07:16:01;;;;;;;46.80;25.05;;;5.30;99.90;;;;;;5033794;28;20508;-51
2024/03/01 07:18:26;;;;;;;43.97;24.88;;;5.30;99.90;;;;;;5034160;28;20029;-51
2024/03/01 07:20:52;;;;;;;47.65;25.05;;;5.30;99.90;;;;;;5034251;28;20033;-48
2024/03/01 07:23:18;;;;;;;43.05;26.13;;;5.50;99.90;;;;;;5033756;28;20116;-48
2024/03/01 07:25:43;;;;;;;43.08;25.05;;;5.50;99.90;;;;;;5033526;28;20049;-51
2024/03/01 07:28:09;;;;;;;43.75;25.38;;;5.60;99.90;;;;;;5032117;28;20026;-48
2024/03/01 07:30:34;;;;;;;38.92;24.27;;;5.60;99.90;;;;;;5033246;28;20075;-52
2024/03/01 07:33:00;;;;;;;42.30;26.05;;;5.70;99.90;;;;;;5033105;28;20049;-49
2024/03/01 07:35:26;;;;;;;42.85;25.98;;;5.70;99.90;;;;;;5033156;28;20047;-45
2024/03/01 07:37:51;;;;;;;48.67;28.00;;;5.80;99.90;;;;;;5033353;28;20481;-49
2024/03/01 07:40:17;;;;;;;44.92;25.20;;;6.00;99.90;;;;;;5033158;28;20037;-49
2024/03/01 07:42:43;;;;;;;44.47;26.13;;;6.10;99.90;;;;;;5032775;28;20505;-48
2024/03/01 07:45:09;;;;;;;40.75;23.60;;;6.10;99.90;;;;;;5033379;28;20021;-47
2024/03/01 07:47:34;;;;;;;40.00;24.90;;;6.10;99.90;;;;;;5031818;28;20389;-47
2024/03/01 07:50:00;;;;;;;42.05;24.83;;;6.20;99.90;;;;;;5032868;28;20021;-48
2024/03/01 07:52:29;;;;;;;41.72;25.13;;;6.20;99.90;;;;;;5032449;28;20021;-46
2024/03/01 07:54:55;;;;;;;39.38;23.58;;;6.30;99.90;;;;;;5032393;28;20037;-50
2024/03/01 07:57:20;;;;;;;36.47;23.90;;;6.30;99.90;;;;;;5032397;28;20021;-47
2024/03/01 07:59:46;;;;;;;43.15;25.30;;;6.40;99.90;;;;;;5032711;28;20093;-50
2024/03/01 08:02:11;;;;;;;39.90;25.65;;;6.40;99.90;;;;;;5030919;28;20045;-53
2024/03/01 08:04:38;;;;;;;40.13;24.85;;;6.50;99.90;;;;;;5032337;28;20029;-53
2024/03/01 08:07:06;;;;;;;45.05;25.10;;;6.50;99.90;;;;;;5032248;28;20028;-52
2024/03/01 08:09:36;;;;;;;44.45;25.65;;;6.60;99.90;;;;;;5032425;28;20018;-53
2024/03/01 08:12:09;;;;;;;44.58;26.13;;;6.70;99.90;;;;;;5032305;28;20049;-53
2024/03/01 08:14:34;;;;;;;47.00;27.70;;;6.80;99.90;;;;;;5032201;28;20021;-50
2024/03/01 08:17:01;;;;;;;47.15;28.63;;;6.90;99.90;;;;;;5032175;28;20032;-50
2024/03/01 08:19:37;;;;;;;49.75;25.90;;;7.00;99.90;;;;;;5032082;28;20040;-52
2024/03/01 08:22:12;;;;;;;48.53;27.65;;;7.10;99.90;;;;;;5032044;28;20101;-51
2024/03/01 08:24:47;;;;;;;45.35;27.35;;;7.10;99.90;;;;;;5031899;28;20037;-52
2024/03/01 08:27:21;;;;;;;45.87;26.03;;;7.10;99.90;;;;;;5031805;28;20033;-54
2024/03/01 08:29:47;;;;;;;46.67;26.27;;;7.30;99.90;;;;;;5032051;28;20032;-54
2024/03/01 08:32:32;;;;;;;44.53;26.02;;;7.40;99.90;;;;;;5032017;28;20025;-50
2024/03/01 08:34:59;;;;;;;39.63;25.00;;;7.70;99.90;;;;;;5031772;28;20048;-50
2024/03/01 08:37:29;;;;;;;49.15;26.65;;;7.80;99.90;;;;;;5031646;28;20025;-48
2024/03/01 08:39:55;;;;;;;35.97;22.92;;;8.00;99.90;;;;;;5031972;28;20389;-49
2024/03/01 08:42:22;;;;;;;36.40;23.05;;;8.20;99.90;;;;;;5031636;28;20512;-53
2024/03/01 08:44:58;;;;;;;41.42;23.45;;;8.40;99.90;;;;;;5046837;28;20056;-49
2024/03/01 08:47:25;;;;;;;41.08;24.15;;;8.70;99.90;;;;;;5032027;28;20025;-50
2024/03/01 08:49:53;;;;;;;38.80;24.95;;;8.80;99.90;;;;;;5030223;28;20030;-52
2024/03/01 08:52:33;;;;;;;36.55;24.70;;;9.00;99.90;;;;;;5031569;28;20046;-48
2024/03/01 08:55:26;;;;;;;33.88;22.17;;;9.10;99.90;;;;;;5031580;28;20029;-51
2024/03/01 08:57:51;;;;;;;43.03;26.27;;;9.10;99.90;;;;;;5031060;28;20389;-50
2024/03/01 09:00:37;;;;;;;41.25;24.92;;;9.10;99.90;;;;;;5031583;28;20028;-52
2024/03/01 09:03:04;;;;;;;42.22;25.67;;;9.10;99.90;;;;;;5046630;28;20040;-48
2024/03/01 09:05:30;;;;;;;41.25;25.15;;;9.20;99.90;;;;;;5031245;28;20036;-50
2024/03/01 09:07:57;;;;;;;43.95;25.30;;;9.20;99.90;;;;;;5031211;28;20096;-53
2024/03/01 09:10:35;;;;;;;43.58;23.33;;;9.30;99.90;;;;;;5031368;28;20036;-51
2024/03/01 09:13:03;;;;;;;35.92;24.33;;;9.30;99.90;;;;;;5031130;28;20140;-50
2024/03/01 09:15:37;;;;;;;42.83;24.65;;;9.50;99.90;;;;;;5031462;28;20044;-50
2024/03/01 09:18:22;;;;;;;46.50;24.15;;;9.70;99.90;;;;;;5046460;28;20033;-51
2024/03/01 09:20:49;;;;;;;48.20;25.60;;;9.80;99.90;;;;;;5031417;28;20029;-50
2024/03/01 09:23:14;;;;;;;36.58;23.17;;;9.90;99.90;;;;;;5031218;28;20159;-47
2024/03/01 09:25:49;;;;;;;38.97;23.15;;;10.10;99.90;;;;;;5031796;28;20033;-46
2024/03/01 09:28:20;;;;;;;38.03;22.30;;;10.30;99.90;;;;;;5033195;28;20537;-50
2024/03/01 09:30:47;;;;;;;38.42;21.70;;;10.60;99.90;;;;;;5031434;28;20392;-49
2024/03/01 09:33:21;;;;;;;33.03;21.67;;;11.00;99.90;;;;;;5031523;28;20025;-56
2024/03/01 09:35:50;;;;;;;35.00;20.67;;;10.90;99.90;;;;;;5052620;28;20090;-55
2024/03/01 09:38:16;;;;;;;32.55;20.13;;;10.70;99.90;;;;;;5049611;28;20103;-57
2024/03/01 09:40:50;;;;;;;29.63;19.92;;;10.60;99.90;;;;;;5048818;28;20484;-50
2024/03/01 09:43:47;;;;;;;32.30;19.85;;;10.60;99.90;;;;;;5048014;28;20025;-53
2024/03/01 09:46:21;;;;;;;;;;;10.70;99.90;;;;;;5050986;28;20037;-54
2024/03/01 09:49:06;;;;;;;28.77;18.17;;;10.60;99.90;;;;;;5050276;28;19909;-54
2024/03/01 09:52:04;;;;;;;29.33;19.08;;;10.60;99.90;;;;;;5050100;28;20036;-56
2024/03/01 09:54:57;;;;;;;35.53;19.80;;;10.40;99.90;;;;;;5050569;28;20021;-54
2024/03/01 09:57:50;;;;;;;29.50;19.02;;;10.20;99.90;;;;;;5049529;28;20033;-59
2024/03/01 10:00:27;;;;;;;36.67;18.98;;;10.00;99.90;;;;;;5049603;28;20032;-54
2024/03/01 10:03:25;;;;;;;37.15;19.77;;;9.90;99.90;;;;;;5050548;28;20025;-49
2024/03/01 10:05:57;;;;;;;30.17;19.42;;;9.90;99.90;;;;;;5067067;28;20039;-50
2024/03/01 10:08:58;;;;;;;32.55;19.67;;;9.90;99.90;;;;;;5070479;28;20021;-52
2024/03/01 10:11:35;;;;;;;36.92;20.48;;;9.90;99.90;;;;;;5002062;28;20043;-50
2024/03/01 10:14:25;;;;;;;36.13;19.35;;;9.80;99.90;;;;;;5052856;28;20021;-53
2024/03/01 10:17:07;;;;;;;29.65;18.10;;;9.70;99.90;;;;;;5053444;28;20028;-52
2024/03/01 10:20:06;;;;;;;33.97;19.00;;;9.60;99.90;;;;;;5054209;28;20018;-54
2024/03/01 10:22:50;;;;;;;33.38;17.88;;;9.50;99.90;;;;;;5053681;28;20075;-50
2024/03/01 10:25:41;;;;;;;34.58;18.38;;;9.30;99.90;;;;;;5034005;28;20083;-50
2024/03/01 10:28:21;;;;;;;28.90;17.98;;;9.30;99.90;;;;;;5034046;28;20421;-54
2024/03/01 10:30:59;;;;;;;30.20;18.67;;;9.20;99.90;;;;;;5049872;28;20044;-56
2024/03/01 10:33:59;;;;;;;61.63;40.10;;;9.20;99.90;;;;;;5062368;28;20029;-52
2024/03/01 10:36:43;;;;;;;40.55;26.20;;;9.20;99.90;;;;;;5037819;28;20412;-52
2024/03/01 10:39:25;;;;;;;29.88;19.80;;;9.20;99.90;;;;;;5054036;28;20101;-54
2024/03/01 10:42:02;;;;;;;33.15;18.05;;;9.20;99.90;;;;;;5053491;28;20103;-52
2024/03/01 10:44:50;;;;;;;30.92;18.70;;;9.20;99.90;;;;;;5057986;28;20433;-56
2024/03/01 10:47:23;;;;;;;30.30;18.30;;;9.20;99.90;;;;;;5053454;28;20052;-58
2024/03/01 10:50:00;;;;;;;35.28;19.13;;;9.10;99.90;;;;;;5052453;28;20025;-55
2024/03/01 10:52:33;;;;;;;29.42;18.40;;;9.10;99.90;;;;;;5052511;28;20044;-57
2024/03/01 10:55:00;;;;;;;25.27;17.05;;;9.10;99.90;;;;;;5036025;28;20034;-54
2024/03/01 10:57:27;;;;;;;27.48;17.70;;;9.20;99.90;;;;;;5042048;28;20032;-57
2024/03/01 11:00:02;;;;;;;25.75;17.38;;;9.10;99.90;;;;;;5040095;28;20133;-54
2024/03/01 11:02:33;;;;;;;26.58;16.27;;;9.20;99.90;;;;;;5031774;28;20516;-55
2024/03/01 11:05:09;;;;;;;26.40;15.77;;;9.20;99.90;;;;;;5044192;28;20096;-52
2024/03/01 11:07:41;;;;;;;23.85;15.57;;;9.20;99.90;;;;;;5050856;28;20121;-50
2024/03/01 11:10:55;;;;;;;24.08;13.93;;;9.30;99.90;;;;;;5043326;28;20032;-51
2024/03/01 11:13:23;;;;;;;21.38;14.27;;;9.40;99.90;;;;;;5044112;28;20040;-57
2024/03/01 11:15:50;;;;;;;18.05;12.30;;;9.50;99.90;;;;;;5042328;28;20116;-55
2024/03/01 11:18:22;;;;;;;14.57;9.32;;;9.50;99.90;;;;;;5042765;28;20031;-52
2024/03/01 11:21:02;;;;;;;11.07;7.30;;;9.60;99.90;;;;;;5042824;28;20029;-56
2024/03/01 11:23:34;;;;;;;8.73;6.05;;;9.60;99.90;;;;;;5052250;28;20483;-56
2024/03/01 11:26:16;;;;;;;1.98;1.88;;;9.70;99.90;;;;;;5051599;28;20378;-53
2024/03/01 11:28:47;;;;;;;3.28;2.38;;;9.70;99.90;;;;;;5052880;28;20025;-55
2024/03/01 11:31:24;;;;;;;3.95;2.10;;;9.70;99.90;;;;;;5052923;28;20041;-58
2024/03/01 11:33:54;;;;;;;1.48;1.38;;;9.70;99.90;;;;;;5050040;28;20021;-57
2024/03/01 11:36:40;;;;;;;3.00;2.03;;;9.70;99.90;;;;;;5049251;28;20033;-56
2024/03/01 11:39:12;;;;;;;1.50;1.40;;;9.60;99.90;;;;;;5050036;28;20029;-54
2024/03/01 11:42:03;;;;;;;1.77;1.00;;;9.70;99.90;;;;;;5052509;28;20091;-55
2024/03/01 11:44:58;;;;;;;1.38;1.23;;;9.60;99.90;;;;;;5051206;28;20028;-54
2024/03/01 11:47:46;;;;;;;1.10;1.05;;;9.60;99.90;;;;;;5052594;28;20021;-56
2024/03/01 11:50:26;;;;;;;1.45;1.35;;;9.60;99.90;;;;;;5052776;28;20481;-55
2024/03/01 11:53:01;;;;;;;1.58;1.48;;;9.60;99.90;;;;;;5052573;28;20481;-58
2024/03/01 11:55:50;;;;;;;1.40;1.30;;;9.60;99.90;;;;;;5051092;28;20127;-59
2024/03/01 11:58:38;;;;;;;1.35;1.27;;;9.60;99.90;;;;;;5052293;28;20037;-59
2024/03/01 12:01:22;;;;;;;1.50;1.40;;;9.60;99.90;;;;;;5052393;28;20186;-56
2024/03/01 12:04:29;;;;;;;1.65;1.55;;;9.70;99.90;;;;;;5051600;28;20036;-60
2024/03/01 12:07:06;;;;;;;;;;;9.80;99.90;;;;;;5009763;28;20032;-58
2024/03/01 12:10:08;;;;;;;1.25;1.23;;;9.80;99.90;;;;;;5029460;28;19909;-52
2024/03/01 12:12:52;;;;;;;2.60;0.98;;;9.90;99.90;;;;;;5035098;28;20056;-57
2024/03/01 12:15:33;;;;;;;2.25;1.48;;;9.80;99.90;;;;;;5051406;28;20024;-57
2024/03/01 12:18:23;;;;;;;1.75;1.20;;;9.80;99.90;;;;;;5050262;28;20025;-55
2024/03/01 12:21:15;;;;;;;0.93;0.93;;;9.90;99.90;;;;;;5051704;28;20021;-56
2024/03/01 12:24:15;;;;;;;1.25;1.08;;;10.00;99.90;;;;;;5050012;28;20059;-59
2024/03/01 12:26:57;;;;;;;33.55;17.17;;;10.00;99.90;;;;;;5050498;28;20025;-56
2024/03/01 12:29:40;;;;;;;12.07;7.80;;;10.10;99.90;;;;;;5051822;28;20374;-56
2024/03/01 12:32:24;;;;;;;1.90;1.80;;;10.30;99.90;;;;;;5050434;28;20488;-59
2024/03/01 12:35:05;;;;;;;2.33;1.45;;;10.50;99.90;;;;;;5052094;28;20455;-57
2024/03/01 12:37:44;;;;;;;0.70;0.70;;;10.70;99.90;;;;;;5031638;28;20029;-52
2024/03/01 12:40:19;;;;;;;0.75;0.75;;;10.80;99.90;;;;;;5031884;28;20036;-58
2024/03/01 12:42:54;;;;;;;1.10;0.90;;;10.90;99.90;;;;;;5032027;28;20401;-60
2024/03/01 12:45:31;;;;;;;2.78;0.80;;;11.00;99.90;;;;;;5043520;28;20108;-57
2024/03/01 12:48:20;;;;;;;0.60;0.60;;;11.00;99.90;;;;;;5051292;28;20488;-58
2024/03/01 12:51:12;;;;;;;0.80;0.80;;;10.90;99.90;;;;;;5049255;28;20037;-60
2024/03/01 12:53:47;;;;;;;1.60;1.50;;;10.80;99.90;;;;;;5042368;28;20435;-55
2024/03/01 12:56:32;;;;;;;4.53;1.35;;;10.80;99.90;;;;;;5051498;28;20420;-61
2024/03/01 12:59:02;;;;;;;0.80;0.80;;;10.80;99.90;;;;;;5050800;28;20035;-55